Time;durP1;ratioP1;P1;durP2;ratioP2;P2;SDS_P1;SDS_P2;PMS_P1;PMS_P2;Temp;Humidity;BMP_temperature;BMP_pressure;BME280_temperature;BME280_humidity;BME280_pressure;Samples;Min_cycle;Max_cycle;Signal;HPM_P1;HPM_P2
2022/04/02 00:00:17;;;;;;;2.20;1.77;;;3.70;61.00;;;;;;5083664;28;20032;-71
2022/04/02 00:02:43;;;;;;;2.25;1.90;;;3.70;61.00;;;;;;5090530;28;20536;-70
2022/04/02 00:05:10;;;;;;;2.97;2.20;;;3.70;60.90;;;;;;5081353;28;20592;-70
2022/04/02 00:07:35;;;;;;;2.72;2.03;;;3.70;60.80;;;;;;5078408;28;20024;-70
2022/04/02 00:10:01;;;;;;;2.85;2.20;;;3.60;60.80;;;;;;5077691;28;20426;-70
2022/04/02 00:12:27;;;;;;;2.80;2.13;;;3.60;60.80;;;;;;5078923;28;21011;-70
2022/04/02 00:14:52;;;;;;;4.35;1.92;;;3.60;60.90;;;;;;5083571;28;20035;-70
2022/04/02 00:17:18;;;;;;;3.05;2.10;;;3.60;61.10;;;;;;5084293;28;20440;-70
2022/04/02 00:19:44;;;;;;;2.88;2.00;;;3.60;61.00;;;;;;5078888;28;20035;-71
2022/04/02 00:22:10;;;;;;;4.43;2.20;;;3.60;61.00;;;;;;5085267;28;20023;-69
2022/04/02 00:24:36;;;;;;;2.63;2.30;;;3.60;61.00;;;;;;5090981;28;20498;-69
2022/04/02 00:27:01;;;;;;;2.85;2.05;;;3.60;61.10;;;;;;5085364;28;20103;-70
2022/04/02 00:29:27;;;;;;;2.38;2.00;;;3.50;61.10;;;;;;5078979;28;20445;-69
2022/04/02 00:31:53;;;;;;;3.55;2.00;;;3.50;61.20;;;;;;5083945;28;20031;-69
2022/04/02 00:34:18;;;;;;;3.22;1.70;;;3.60;61.30;;;;;;5082437;28;20031;-68
2022/04/02 00:36:45;;;;;;;4.72;2.33;;;3.50;61.20;;;;;;5081292;28;20115;-68
2022/04/02 00:39:10;;;;;;;3.75;2.30;;;3.50;61.20;;;;;;5082888;28;20394;-69
2022/04/02 00:41:36;;;;;;;3.63;2.15;;;3.50;61.30;;;;;;5082502;28;20033;-69
2022/04/02 00:44:11;;;;;;;3.00;2.00;;;3.50;61.40;;;;;;5086830;28;20024;-69
2022/04/02 00:46:39;;;;;;;2.78;1.80;;;3.50;61.40;;;;;;5082944;28;20458;-69
2022/04/02 00:49:05;;;;;;;2.67;2.03;;;3.50;61.50;;;;;;5087931;28;20456;-69
2022/04/02 00:51:31;;;;;;;3.40;2.00;;;3.50;61.50;;;;;;5082916;28;20029;-69
2022/04/02 00:53:57;;;;;;;1.95;1.52;;;3.50;61.50;;;;;;5087772;28;20039;-69
2022/04/02 00:56:23;;;;;;;2.20;1.98;;;3.60;61.50;;;;;;5093879;28;20363;-70
2022/04/02 00:58:49;;;;;;;2.55;1.95;;;3.60;61.50;;;;;;5079676;28;20024;-69
2022/04/02 01:01:16;;;;;;;2.42;1.90;;;3.50;61.40;;;;;;5076852;28;20390;-70
2022/04/02 01:03:42;;;;;;;2.15;1.88;;;3.50;61.40;;;;;;5085214;28;20029;-71
2022/04/02 01:06:10;;;;;;;2.72;2.00;;;3.50;61.50;;;;;;5086590;28;20024;-70
2022/04/02 01:08:36;;;;;;;2.40;2.05;;;3.50;61.60;;;;;;5083339;28;20034;-70
2022/04/02 01:11:03;;;;;;;2.80;1.98;;;3.60;61.60;;;;;;5079672;28;20032;-69
2022/04/02 01:13:29;;;;;;;2.53;1.70;;;3.50;61.50;;;;;;5076496;28;20730;-69
2022/04/02 01:15:56;;;;;;;3.78;2.03;;;3.50;61.40;;;;;;5075253;28;20031;-69
2022/04/02 01:18:22;;;;;;;2.33;2.08;;;3.50;61.90;;;;;;5081504;28;20027;-70
2022/04/02 01:20:48;;;;;;;2.70;1.85;;;3.40;61.30;;;;;;5081752;28;20017;-70
2022/04/02 01:23:14;;;;;;;2.47;1.85;;;3.50;61.40;;;;;;5074816;28;20043;-69
2022/04/02 01:25:40;;;;;;;3.67;2.45;;;3.50;61.20;;;;;;5074860;28;20028;-70
2022/04/02 01:28:06;;;;;;;2.28;2.08;;;3.40;61.10;;;;;;5086838;28;20019;-70
2022/04/02 01:30:32;;;;;;;2.55;2.00;;;3.40;61.00;;;;;;5085641;28;20024;-70
2022/04/02 01:32:58;;;;;;;3.28;2.13;;;3.40;61.20;;;;;;5084069;28;20413;-70
2022/04/02 01:35:25;;;;;;;2.70;1.90;;;3.40;61.20;;;;;;5084495;28;20474;-70
2022/04/02 01:37:52;;;;;;;3.15;2.00;;;3.40;61.20;;;;;;5085067;28;20020;-69
2022/04/02 01:40:18;;;;;;;3.10;2.10;;;3.40;61.20;;;;;;5087131;28;20398;-69
2022/04/02 01:42:45;;;;;;;2.67;1.80;;;3.40;61.20;;;;;;5087517;28;20033;-69
2022/04/02 01:45:11;;;;;;;2.53;2.00;;;3.50;61.20;;;;;;5082808;28;20028;-69
2022/04/02 01:47:36;;;;;;;3.50;2.00;;;3.50;61.10;;;;;;5085090;28;20106;-71
2022/04/02 01:50:04;;;;;;;2.30;1.83;;;3.40;61.20;;;;;;5083659;28;20095;-69
2022/04/02 01:52:29;;;;;;;2.90;2.05;;;3.40;61.20;;;;;;5088807;28;20032;-70
2022/04/02 01:54:55;;;;;;;2.28;1.83;;;3.50;61.20;;;;;;5085194;28;20016;-70
2022/04/02 01:57:21;;;;;;;2.60;1.70;;;3.40;61.20;;;;;;5084612;28;20055;-68
2022/04/02 01:59:49;;;;;;;2.67;1.80;;;3.50;61.30;;;;;;5080400;28;20042;-69
2022/04/02 02:02:20;;;;;;;2.35;1.70;;;3.50;61.30;;;;;;5076802;28;20483;-69
2022/04/02 02:04:45;;;;;;;2.17;1.75;;;3.40;61.30;;;;;;5084201;28;20560;-70
2022/04/02 02:07:11;;;;;;;2.10;1.80;;;3.50;61.40;;;;;;5081991;28;20039;-69
2022/04/02 02:09:36;;;;;;;2.17;1.80;;;3.40;61.40;;;;;;5084941;28;20028;-70
2022/04/02 02:12:03;;;;;;;2.72;1.95;;;3.50;61.50;;;;;;5091007;28;20025;-69
2022/04/02 02:14:29;;;;;;;2.35;1.80;;;3.40;61.50;;;;;;5082422;28;20073;-68
2022/04/02 02:16:58;;;;;;;2.30;1.85;;;3.50;61.60;;;;;;5100844;28;20426;-68
2022/04/02 02:19:23;;;;;;;2.30;1.83;;;3.40;61.40;;;;;;5084202;28;20036;-69
2022/04/02 02:21:49;;;;;;;2.15;1.88;;;3.40;61.60;;;;;;5077098;28;20039;-68
2022/04/02 02:24:14;;;;;;;3.00;1.80;;;3.40;61.60;;;;;;5085879;28;20409;-69
2022/04/02 02:26:40;;;;;;;2.05;1.70;;;3.30;61.70;;;;;;5089372;28;20059;-68
2022/04/02 02:29:06;;;;;;;2.40;2.10;;;3.40;61.80;;;;;;5088701;28;20394;-70
2022/04/02 02:31:35;;;;;;;3.53;2.38;;;3.40;62.20;;;;;;5084691;28;20448;-70
2022/04/02 02:36:46;;;;;;;2.00;1.80;;;3.30;61.80;;;;;;5082125;28;20031;-70
2022/04/02 02:39:12;;;;;;;2.50;2.03;;;3.30;61.90;;;;;;5087427;28;20024;-68
2022/04/02 02:41:37;;;;;;;2.60;2.05;;;3.30;62.00;;;;;;5076431;28;20087;-69
2022/04/02 02:44:04;;;;;;;2.38;1.77;;;3.20;62.00;;;;;;5072939;28;20050;-69
2022/04/02 02:46:29;;;;;;;2.85;1.98;;;3.30;62.00;;;;;;5081441;28;20039;-68
2022/04/02 02:48:55;;;;;;;2.00;1.80;;;3.30;62.70;;;;;;5084266;28;20031;-71
2022/04/02 02:51:20;;;;;;;4.93;2.00;;;3.30;62.10;;;;;;5088615;28;20055;-70
2022/04/02 02:53:46;;;;;;;2.42;1.80;;;3.20;62.00;;;;;;5097364;28;20043;-69
2022/04/02 02:56:11;;;;;;;2.45;1.80;;;3.30;62.00;;;;;;5083143;28;20024;-69
2022/04/02 02:58:37;;;;;;;3.88;1.80;;;3.30;62.10;;;;;;5086094;28;20094;-71
2022/04/02 03:01:04;;;;;;;2.45;1.92;;;3.30;62.10;;;;;;5082100;28;20023;-70
2022/04/02 03:03:31;;;;;;;2.13;1.70;;;3.30;62.10;;;;;;5084288;28;20020;-70
2022/04/02 03:05:57;;;;;;;2.55;1.95;;;3.30;62.20;;;;;;5075516;28;20359;-69
2022/04/02 03:08:22;;;;;;;2.33;1.83;;;3.30;62.20;;;;;;5081015;28;20075;-68
2022/04/02 03:10:48;;;;;;;3.13;1.90;;;3.20;62.20;;;;;;5086594;28;20394;-67
2022/04/02 03:13:14;;;;;;;2.10;1.90;;;3.20;62.30;;;;;;5082470;28;20606;-69
2022/04/02 03:15:40;;;;;;;1.77;1.52;;;3.20;62.40;;;;;;5077962;28;20031;-69
2022/04/02 03:18:14;;;;;;;3.20;2.20;;;3.20;62.40;;;;;;5076170;28;20103;-70
2022/04/02 03:20:41;;;;;;;2.30;1.80;;;3.20;62.50;;;;;;5081972;28;20455;-69
2022/04/02 03:23:08;;;;;;;2.15;1.70;;;3.20;62.60;;;;;;5074638;28;21407;-70
2022/04/02 03:25:34;;;;;;;2.53;1.85;;;3.20;62.60;;;;;;5076771;28;20058;-70
2022/04/02 03:27:59;;;;;;;3.45;2.00;;;3.20;62.60;;;;;;5077240;28;20143;-70
2022/04/02 03:30:26;;;;;;;2.50;1.75;;;3.20;62.70;;;;;;5083623;28;20040;-71
2022/04/02 03:32:52;;;;;;;2.40;1.90;;;3.10;62.70;;;;;;5085993;28;20633;-70
2022/04/02 03:35:18;;;;;;;2.35;1.85;;;3.10;62.80;;;;;;5080488;28;20440;-70
2022/04/02 03:37:46;;;;;;;2.22;1.88;;;3.10;62.90;;;;;;5083569;28;20027;-70
2022/04/02 03:40:15;;;;;;;3.15;1.65;;;3.10;63.00;;;;;;5088751;28;20478;-69
2022/04/02 03:42:44;;;;;;;2.08;1.67;;;3.10;63.10;;;;;;5093177;28;20047;-69
2022/04/02 03:45:10;;;;;;;3.15;2.30;;;3.10;63.10;;;;;;5084953;28;20380;-70
2022/04/02 03:47:36;;;;;;;3.13;2.10;;;3.10;63.10;;;;;;5089658;28;20028;-69
2022/04/02 03:50:02;;;;;;;2.03;1.77;;;3.00;63.20;;;;;;5080928;28;20074;-69
2022/04/02 03:52:29;;;;;;;2.55;1.80;;;3.00;63.20;;;;;;5081775;28;20026;-68
2022/04/02 03:54:54;;;;;;;2.53;1.83;;;3.00;63.20;;;;;;5081060;28;20074;-71
2022/04/02 03:57:21;;;;;;;2.45;1.80;;;3.10;63.30;;;;;;5089735;28;20052;-71
2022/04/02 03:59:46;;;;;;;2.30;1.83;;;3.10;63.30;;;;;;5081001;28;20054;-71
2022/04/02 04:02:12;;;;;;;2.70;2.20;;;3.00;63.30;;;;;;5091059;28;20024;-71
2022/04/02 04:04:39;;;;;;;2.97;1.90;;;3.00;63.20;;;;;;5090562;28;20027;-71
2022/04/02 04:07:06;;;;;;;2.67;1.90;;;3.10;63.30;;;;;;5088596;28;20024;-70
2022/04/02 04:09:32;;;;;;;3.08;1.95;;;3.10;63.30;;;;;;5083935;28;20063;-70
2022/04/02 04:11:58;;;;;;;3.75;1.88;;;3.00;63.30;;;;;;5086850;28;20067;-70
2022/04/02 04:14:24;;;;;;;3.70;2.15;;;3.00;63.30;;;;;;5080079;28;20027;-70
2022/04/02 04:16:50;;;;;;;3.75;2.15;;;3.00;63.30;;;;;;5088756;28;20012;-69
2022/04/02 04:19:16;;;;;;;2.20;2.00;;;3.00;63.30;;;;;;5087320;28;20031;-70
2022/04/02 04:21:43;;;;;;;3.90;1.92;;;3.00;63.40;;;;;;5088539;28;20036;-71
2022/04/02 04:24:10;;;;;;;3.00;2.00;;;3.00;63.40;;;;;;5095677;28;20020;-70
2022/04/02 04:26:36;;;;;;;3.08;2.17;;;3.00;63.40;;;;;;5090697;28;20275;-70
2022/04/02 04:29:02;;;;;;;3.33;1.98;;;3.00;63.30;;;;;;5085083;28;20031;-68
2022/04/02 04:31:28;;;;;;;2.53;1.90;;;3.00;63.40;;;;;;5082416;28;20568;-69
2022/04/02 04:33:53;;;;;;;3.40;2.30;;;2.90;63.30;;;;;;5085135;28;20036;-70
2022/04/02 04:36:19;;;;;;;1.98;1.55;;;2.90;63.40;;;;;;5090794;28;20016;-71
2022/04/02 04:38:46;;;;;;;3.05;1.73;;;2.90;63.40;;;;;;5081914;28;20024;-71
2022/04/02 04:41:12;;;;;;;2.80;1.92;;;2.90;63.50;;;;;;5082318;28;20048;-72
2022/04/02 04:43:41;;;;;;;2.80;2.05;;;2.90;63.50;;;;;;5077747;28;20521;-71
2022/04/02 04:46:07;;;;;;;2.83;1.90;;;3.00;63.50;;;;;;5080084;28;20051;-69
2022/04/02 04:48:32;;;;;;;4.32;2.20;;;2.90;63.50;;;;;;5081174;28;20032;-70
2022/04/02 04:50:58;;;;;;;2.35;1.90;;;2.90;63.50;;;;;;5082307;28;20028;-70
2022/04/02 04:53:23;;;;;;;2.60;1.90;;;2.90;63.60;;;;;;5079599;28;20024;-70
2022/04/02 04:55:49;;;;;;;2.45;1.80;;;2.90;63.60;;;;;;5085608;28;20017;-70
2022/04/02 04:58:14;;;;;;;2.60;1.90;;;2.90;63.70;;;;;;5076946;28;20021;-70
2022/04/02 05:00:41;;;;;;;3.25;2.13;;;2.90;63.70;;;;;;5081173;28;20486;-70
2022/04/02 05:03:08;;;;;;;3.60;2.05;;;2.90;63.80;;;;;;5080482;28;20032;-70
2022/04/02 05:05:35;;;;;;;3.30;2.45;;;2.90;63.70;;;;;;5080064;28;20158;-70
2022/04/02 05:08:01;;;;;;;2.88;2.00;;;2.90;63.80;;;;;;5082591;28;20040;-70
2022/04/02 05:10:28;;;;;;;2.55;1.92;;;2.90;63.80;;;;;;5077742;28;20379;-70
2022/04/02 05:12:54;;;;;;;2.80;2.30;;;2.90;63.90;;;;;;5084146;28;20032;-72
2022/04/02 05:15:19;;;;;;;2.53;1.92;;;2.90;63.90;;;;;;5090309;28;20077;-71
2022/04/02 05:17:45;;;;;;;5.03;2.15;;;2.90;63.90;;;;;;5086098;28;20787;-71
2022/04/02 05:20:14;;;;;;;3.25;2.10;;;2.90;64.00;;;;;;5087996;28;20031;-70
2022/04/02 05:22:41;;;;;;;2.42;1.83;;;2.90;64.10;;;;;;5080617;28;20032;-70
2022/04/02 05:25:07;;;;;;;4.32;2.45;;;2.90;64.10;;;;;;5085426;28;20494;-70
2022/04/02 05:27:33;;;;;;;3.13;2.20;;;2.90;64.20;;;;;;5085229;28;20069;-71
2022/04/02 05:30:00;;;;;;;2.22;1.90;;;2.90;64.30;;;;;;5081716;28;20151;-70
2022/04/02 05:32:28;;;;;;;2.90;2.30;;;2.90;64.40;;;;;;5088818;28;20027;-71
2022/04/02 05:34:53;;;;;;;2.83;2.10;;;2.90;64.50;;;;;;5084500;28;20190;-70
2022/04/02 05:37:19;;;;;;;4.18;2.42;;;2.90;64.60;;;;;;5083783;28;20083;-70
2022/04/02 05:39:45;;;;;;;5.00;2.45;;;2.80;64.50;;;;;;5083100;28;20062;-70
2022/04/02 05:42:12;;;;;;;2.80;2.10;;;2.80;64.70;;;;;;5074925;28;20607;-69
2022/04/02 05:44:38;;;;;;;2.70;2.40;;;2.80;64.80;;;;;;5077316;28;20036;-70
2022/04/02 05:47:04;;;;;;;2.22;2.03;;;2.80;64.80;;;;;;5081167;28;20024;-69
2022/04/02 05:49:31;;;;;;;3.40;2.15;;;2.80;65.00;;;;;;5073960;28;20554;-69
2022/04/02 05:51:57;;;;;;;3.42;2.30;;;2.80;65.00;;;;;;5077243;28;20793;-69
2022/04/02 05:54:23;;;;;;;3.70;2.22;;;2.80;64.90;;;;;;5078348;28;20047;-70
2022/04/02 05:56:48;;;;;;;4.47;2.30;;;2.80;65.00;;;;;;5079935;28;20063;-70
2022/04/02 05:59:14;;;;;;;3.83;2.53;;;2.80;64.90;;;;;;5080482;28;20027;-70
2022/04/02 06:01:39;;;;;;;2.33;1.80;;;2.90;65.00;;;;;;5075565;28;20558;-70
2022/04/02 06:04:05;;;;;;;2.70;2.13;;;2.90;65.10;;;;;;5088392;28;20085;-70
2022/04/02 06:06:30;;;;;;;3.42;2.33;;;2.90;65.00;;;;;;5082314;28;20575;-69
2022/04/02 06:08:57;;;;;;;2.33;1.90;;;2.90;64.90;;;;;;5080679;28;20486;-70
2022/04/02 06:11:23;;;;;;;3.28;2.13;;;2.90;64.90;;;;;;5074415;28;20020;-70
2022/04/02 06:13:49;;;;;;;4.47;2.55;;;3.00;64.90;;;;;;5078570;28;20025;-70
2022/04/02 06:16:16;;;;;;;3.38;2.30;;;3.00;64.90;;;;;;5076112;28;20603;-70
2022/04/02 06:18:42;;;;;;;3.28;2.35;;;3.00;64.90;;;;;;5082344;28;20032;-71
2022/04/02 06:21:08;;;;;;;3.63;2.22;;;3.00;65.00;;;;;;5076362;28;20066;-69
2022/04/02 06:23:34;;;;;;;2.65;2.08;;;3.00;65.00;;;;;;5094492;28;20032;-70
2022/04/02 06:25:59;;;;;;;4.00;2.35;;;3.10;65.00;;;;;;5093227;28;20077;-71
2022/04/02 06:28:25;;;;;;;5.00;2.45;;;3.10;65.00;;;;;;5072833;28;20472;-70
2022/04/02 06:30:50;;;;;;;3.38;2.20;;;3.20;64.90;;;;;;5074522;28;20032;-70
2022/04/02 06:33:16;;;;;;;2.80;2.28;;;3.30;64.80;;;;;;5074372;28;20032;-70
2022/04/02 06:35:42;;;;;;;3.63;2.65;;;3.40;64.70;;;;;;5082667;28;20024;-70
2022/04/02 06:38:07;;;;;;;3.00;2.33;;;3.40;64.50;;;;;;5086840;28;20473;-69
2022/04/02 06:40:33;;;;;;;2.80;1.92;;;3.50;64.40;;;;;;5085261;27;20036;-69
2022/04/02 06:43:00;;;;;;;2.65;2.10;;;3.70;64.30;;;;;;5089294;28;20470;-69
2022/04/02 06:45:26;;;;;;;4.40;2.50;;;3.90;64.00;;;;;;5092717;28;20371;-70
2022/04/02 06:47:51;;;;;;;3.65;2.50;;;4.20;63.70;;;;;;5083085;28;20071;-70
2022/04/02 06:50:17;;;;;;;4.50;2.20;;;4.60;63.00;;;;;;5085019;28;20062;-70
2022/04/02 06:52:44;;;;;;;5.20;2.70;;;5.00;62.20;;;;;;5081093;28;20017;-70
2022/04/02 06:55:13;;;;;;;4.82;2.80;;;5.20;61.20;;;;;;5081798;28;20013;-70
2022/04/02 06:57:43;;;;;;;4.68;2.53;;;5.20;60.60;;;;;;5072418;28;20042;-71
2022/04/02 07:00:11;;;;;;;3.15;2.50;;;5.20;60.60;;;;;;5080403;28;20020;-71
2022/04/02 07:02:40;;;;;;;4.10;2.30;;;5.40;60.50;;;;;;5081093;28;20488;-71
2022/04/02 07:05:06;;;;;;;3.85;2.20;;;5.70;60.20;;;;;;5081596;28;20020;-69
2022/04/02 07:07:31;;;;;;;4.50;2.20;;;6.00;59.60;;;;;;5101547;28;20023;-69
2022/04/02 07:09:56;;;;;;;3.63;2.22;;;6.30;59.00;;;;;;5087184;28;20031;-69
2022/04/02 07:12:22;;;;;;;2.25;2.03;;;6.40;58.70;;;;;;5082427;28;20028;-72
2022/04/02 07:14:48;;;;;;;5.60;3.13;;;6.60;58.30;;;;;;5086739;28;20085;-70
2022/04/02 07:17:14;;;;;;;3.38;2.67;;;6.60;56.90;;;;;;5088867;28;20016;-70
2022/04/02 07:19:40;;;;;;;3.95;2.22;;;6.50;57.50;;;;;;5077793;28;20027;-69
2022/04/02 07:22:09;;;;;;;4.38;2.28;;;6.40;57.60;;;;;;5088466;28;20095;-69
2022/04/02 07:24:39;;;;;;;3.80;2.20;;;6.50;57.90;;;;;;5085927;28;20073;-69
2022/04/02 07:27:05;;;;;;;3.58;2.65;;;6.50;57.70;;;;;;5079703;28;20024;-69
2022/04/02 07:29:34;;;;;;;4.30;3.05;;;6.30;57.80;;;;;;5089330;28;20165;-70
2022/04/02 07:32:00;;;;;;;4.22;2.40;;;6.20;58.10;;;;;;5090484;28;20047;-71
2022/04/02 07:34:26;;;;;;;4.82;2.53;;;6.10;58.50;;;;;;5082983;28;20095;-70
2022/04/02 07:37:01;;;;;;;3.53;2.63;;;6.10;58.80;;;;;;5086204;28;20049;-70
2022/04/02 07:39:34;;;;;;;4.05;2.50;;;6.00;58.90;;;;;;5085984;28;20043;-70
2022/04/02 07:42:21;;;;;;;4.65;2.47;;;6.10;59.10;;;;;;5079033;28;20024;-70
2022/04/02 07:45:13;;;;;;;5.45;3.00;;;6.30;59.00;;;;;;5078388;28;20064;-70
2022/04/02 07:47:45;;;;;;;4.85;3.20;;;6.30;58.50;;;;;;5078005;28;20027;-70
2022/04/02 07:50:15;;;;;;;4.47;2.72;;;6.30;58.30;;;;;;5078180;28;20024;-70
2022/04/02 07:52:50;;;;;;;5.72;2.58;;;6.10;58.60;;;;;;5077712;28;20036;-70
2022/04/02 07:55:18;;;;;;;6.25;3.20;;;6.10;58.90;;;;;;5079657;28;20074;-70
2022/04/02 07:57:46;;;;;;;2.92;2.10;;;6.00;58.90;;;;;;5079441;28;20107;-69
2022/04/02 08:00:14;;;;;;;3.42;2.38;;;5.90;59.30;;;;;;5077318;28;20032;-69
2022/04/02 08:02:43;;;;;;;4.28;2.60;;;5.90;59.50;;;;;;5077457;28;20016;-69
2022/04/02 08:05:17;;;;;;;5.15;2.78;;;5.80;59.70;;;;;;5076668;28;20585;-70
2022/04/02 08:07:44;;;;;;;4.50;3.20;;;5.90;59.90;;;;;;5082022;28;20057;-70
2022/04/02 08:10:12;;;;;;;4.65;2.78;;;5.90;59.90;;;;;;5075460;28;20024;-70
2022/04/02 08:12:40;;;;;;;4.43;2.85;;;5.80;59.70;;;;;;5076680;28;20028;-70
2022/04/02 08:15:09;;;;;;;4.93;2.70;;;5.80;59.90;;;;;;5080502;28;20049;-69
2022/04/02 08:17:37;;;;;;;3.03;2.22;;;5.90;60.10;;;;;;5086366;28;20031;-70
2022/04/02 08:20:04;;;;;;;3.63;2.38;;;6.00;60.00;;;;;;5084285;28;20048;-69
2022/04/02 08:22:29;;;;;;;4.13;2.65;;;6.10;59.80;;;;;;5085718;28;20031;-70
2022/04/02 08:24:58;;;;;;;3.88;2.47;;;6.20;59.80;;;;;;5090623;28;20032;-70
2022/04/02 08:27:33;;;;;;;9.00;3.60;;;6.30;59.60;;;;;;5093504;28;20036;-71
2022/04/02 08:30:04;;;;;;;4.80;3.30;;;6.20;58.90;;;;;;5082976;28;20025;-71
2022/04/02 08:33:07;;;;;;;4.05;2.40;;;6.00;59.50;;;;;;5083364;28;20115;-70
2022/04/02 08:35:39;;;;;;;5.38;3.13;;;6.20;59.90;;;;;;5089132;28;20028;-70
2022/04/02 08:38:28;;;;;;;5.70;3.20;;;6.30;59.60;;;;;;5082533;28;20505;-71
2022/04/02 08:41:11;;;;;;;4.07;3.05;;;6.30;59.30;;;;;;5082590;28;20032;-71
2022/04/02 08:44:04;;;;;;;4.43;3.35;;;6.30;59.10;;;;;;5083438;28;20028;-71
2022/04/02 08:46:38;;;;;;;;;;;6.30;58.90;;;;;;5081665;28;20501;-71
2022/04/02 08:49:23;;;;;;;4.35;3.28;;;6.30;59.00;;;;;;5089259;28;19954;-71
2022/04/02 08:52:03;;;;;;;5.45;3.60;;;6.40;58.90;;;;;;5078878;28;20033;-71
2022/04/02 08:54:36;;;;;;;5.30;3.35;;;6.20;58.20;;;;;;5079501;28;20043;-71
2022/04/02 08:57:22;;;;;;;4.57;2.97;;;6.10;58.60;;;;;;5084781;28;20016;-71
2022/04/02 09:00:11;;;;;;;5.18;3.50;;;6.20;58.80;;;;;;5076997;28;20029;-70
2022/04/02 09:03:13;;;;;;;6.32;3.45;;;6.30;58.40;;;;;;5079743;28;20157;-70
2022/04/02 09:06:09;;;;;;;4.43;3.10;;;6.20;58.20;;;;;;5076669;28;20081;-70
2022/04/02 09:08:38;;;;;;;6.15;3.88;;;6.20;58.30;;;;;;5075625;28;20020;-70
2022/04/02 09:11:23;;;;;;;5.97;3.88;;;6.10;57.90;;;;;;5086071;28;20024;-70
2022/04/02 09:14:09;;;;;;;6.00;3.42;;;6.10;58.00;;;;;;5081418;28;20032;-70
2022/04/02 09:16:53;;;;;;;5.93;3.28;;;5.90;58.60;;;;;;5073420;28;20044;-70
2022/04/02 09:19:47;;;;;;;6.10;3.20;;;5.90;58.80;;;;;;5080959;28;20032;-71
2022/04/02 09:22:21;;;;;;;5.70;3.30;;;5.90;59.20;;;;;;5086869;28;20461;-71
2022/04/02 09:25:08;;;;;;;5.20;3.30;;;6.10;59.20;;;;;;5088753;28;20024;-71
2022/04/02 09:28:23;;;;;;;4.97;3.30;;;6.10;58.70;;;;;;5080881;28;20027;-70
2022/04/02 09:31:12;;;;;;;4.38;3.10;;;5.80;58.30;;;;;;5080460;28;20030;-71
2022/04/02 09:33:57;;;;;;;5.93;3.30;;;5.80;58.80;;;;;;5080927;28;20027;-69
2022/04/02 09:36:59;;;;;;;4.28;2.90;;;5.80;58.60;;;;;;5077098;28;20050;-70
2022/04/02 09:39:46;;;;;;;3.60;2.92;;;5.80;58.20;;;;;;5078090;28;20628;-70
2022/04/02 09:42:19;;;;;;;5.60;3.10;;;5.90;58.00;;;;;;5077084;28;20081;-70
2022/04/02 09:45:10;;;;;;;5.43;3.47;;;5.90;58.00;;;;;;5084619;28;20157;-70
2022/04/02 09:47:48;;;;;;;4.55;3.17;;;6.00;57.60;;;;;;5092342;28;20088;-70
2022/04/02 09:50:19;;;;;;;3.38;2.85;;;6.10;57.30;;;;;;5091532;28;20531;-70
2022/04/02 09:52:56;;;;;;;3.67;2.70;;;6.20;56.80;;;;;;5076475;28;20043;-70
2022/04/02 09:56:00;;;;;;;4.93;2.95;;;6.20;56.20;;;;;;5084562;28;20397;-70
2022/04/02 09:58:40;;;;;;;3.72;2.90;;;6.10;53.10;;;;;;5053205;28;20032;-71
2022/04/02 10:01:12;;;;;;;4.07;2.50;;;6.10;53.30;;;;;;5090851;28;20050;-71
2022/04/02 10:03:57;;;;;;;4.85;2.55;;;6.10;54.00;;;;;;5080271;28;20037;-71
2022/04/02 10:06:25;;;;;;;3.72;2.45;;;6.10;53.30;;;;;;5089897;28;20032;-70
2022/04/02 10:09:03;;;;;;;3.58;2.35;;;6.20;52.40;;;;;;5094995;28;20656;-69
2022/04/02 10:11:30;;;;;;;4.00;2.30;;;6.20;52.70;;;;;;5092288;28;20016;-71
2022/04/02 10:14:00;;;;;;;3.95;2.40;;;6.30;53.20;;;;;;5095695;28;20032;-69
2022/04/02 10:16:27;;;;;;;4.72;2.50;;;6.30;53.00;;;;;;5086769;28;20386;-69
2022/04/02 10:18:55;;;;;;;3.13;2.40;;;6.20;52.30;;;;;;5090745;28;20016;-68
2022/04/02 10:21:21;;;;;;;3.45;2.10;;;6.30;51.90;;;;;;5082434;28;20398;-70
2022/04/02 10:24:22;;;;;;;3.67;2.10;;;6.40;52.20;;;;;;5092227;28;20016;-69
2022/04/02 10:26:53;;;;;;;4.07;2.00;;;6.40;51.20;;;;;;5077784;28;20020;-69
2022/04/02 10:29:30;;;;;;;3.45;1.80;;;6.30;49.60;;;;;;5081112;28;20054;-69
2022/04/02 10:32:19;;;;;;;3.00;2.10;;;6.30;49.70;;;;;;5083512;28;20116;-70
2022/04/02 10:34:55;;;;;;;3.63;2.03;;;6.30;48.70;;;;;;5101406;28;20187;-70
2022/04/02 10:37:24;;;;;;;2.30;1.67;;;6.50;49.10;;;;;;5077196;28;20024;-69
2022/04/02 10:39:58;;;;;;;2.70;1.88;;;6.70;49.10;;;;;;5084940;28;20521;-69
2022/04/02 10:42:39;;;;;;;2.65;2.15;;;6.70;49.10;;;;;;5083976;28;20077;-69
2022/04/02 10:45:08;;;;;;;3.22;2.10;;;6.80;48.00;;;;;;5082922;28;20035;-69
2022/04/02 10:47:56;;;;;;;3.70;1.90;;;6.60;48.00;;;;;;5089962;28;20035;-69
2022/04/02 10:50:24;;;;;;;2.45;1.70;;;6.60;48.50;;;;;;5088370;28;20031;-69
2022/04/02 10:52:51;;;;;;;2.28;1.70;;;6.50;47.50;;;;;;5082294;28;20046;-69
2022/04/02 10:55:21;;;;;;;8.02;5.65;;;6.50;48.10;;;;;;5092457;28;20027;-69
2022/04/02 10:57:47;;;;;;;3.42;2.15;;;6.60;48.50;;;;;;5082553;28;20744;-70
2022/04/02 11:00:13;;;;;;;2.47;1.70;;;6.60;47.10;;;;;;5078440;28;20072;-69
2022/04/02 11:02:41;;;;;;;4.13;1.80;;;6.70;48.10;;;;;;5081176;28;20366;-70
2022/04/02 11:05:10;;;;;;;2.88;1.90;;;6.70;48.20;;;;;;5089285;28;20120;-70
2022/04/02 11:07:41;;;;;;;3.63;2.03;;;6.70;47.90;;;;;;5078112;28;20046;-70
2022/04/02 11:10:09;;;;;;;3.38;1.88;;;6.70;48.20;;;;;;5081617;28;20038;-70
2022/04/02 11:12:41;;;;;;;3.20;1.88;;;6.70;48.80;;;;;;5081103;28;20051;-70
2022/04/02 11:15:24;;;;;;;2.47;1.50;;;6.70;49.10;;;;;;5088156;28;20050;-70
2022/04/02 11:17:53;;;;;;;3.17;1.95;;;6.80;49.50;;;;;;5082271;28;20552;-69
2022/04/02 11:20:32;;;;;;;2.28;1.70;;;6.90;49.70;;;;;;5081267;28;20024;-70
2022/04/02 11:23:02;;;;;;;3.00;2.03;;;6.80;49.10;;;;;;5080994;28;20020;-70
2022/04/02 11:25:31;;;;;;;2.90;1.92;;;6.60;48.10;;;;;;5084537;28;20102;-71
2022/04/02 11:28:13;;;;;;;2.17;1.80;;;6.60;49.00;;;;;;5085487;28;20016;-70
2022/04/02 11:30:47;;;;;;;3.50;1.90;;;6.70;49.10;;;;;;5078394;28;20614;-70
2022/04/02 11:33:26;;;;;;;3.25;1.85;;;6.90;48.50;;;;;;5079374;28;20024;-71
2022/04/02 11:35:56;;;;;;;3.90;2.00;;;6.90;47.60;;;;;;5078419;28;20032;-70
2022/04/02 11:38:47;;;;;;;1.98;1.70;;;6.90;46.70;;;;;;5075025;28;20055;-69
2022/04/02 11:41:29;;;;;;;2.17;1.75;;;6.80;46.90;;;;;;5077380;28;20389;-68
2022/04/02 11:44:10;;;;;;;1.85;1.50;;;6.80;47.30;;;;;;5080169;28;20024;-69
2022/04/02 11:46:55;;;;;;;2.40;1.60;;;6.80;47.00;;;;;;5070933;28;20047;-69
2022/04/02 11:49:39;;;;;;;3.13;2.00;;;6.80;47.60;;;;;;5076302;28;20111;-69
2022/04/02 11:52:12;;;;;;;2.58;1.80;;;6.80;48.00;;;;;;5081936;28;20698;-69
2022/04/02 11:54:42;;;;;;;2.50;1.77;;;6.90;48.40;;;;;;5082737;28;20437;-69
2022/04/02 11:57:13;;;;;;;2.00;1.80;;;7.00;48.60;;;;;;5083164;28;20089;-69
2022/04/02 11:59:53;;;;;;;1.83;1.60;;;7.10;48.80;;;;;;5085425;28;20021;-69
2022/04/02 12:02:42;;;;;;;2.58;1.90;;;7.00;48.60;;;;;;5092533;28;20039;-69
2022/04/02 12:05:10;;;;;;;2.53;1.80;;;6.90;49.00;;;;;;5096667;28;20027;-68
2022/04/02 12:07:52;;;;;;;3.45;2.10;;;6.90;49.60;;;;;;5098099;28;20052;-68
2022/04/02 12:10:27;;;;;;;4.10;1.80;;;6.90;49.60;;;;;;5108606;28;20028;-70
2022/04/02 12:12:55;;;;;;;4.18;2.67;;;6.90;49.90;;;;;;5080125;28;20024;-69
2022/04/02 12:15:22;;;;;;;2.63;1.77;;;6.90;50.20;;;;;;5094785;28;20668;-69
2022/04/02 12:17:51;;;;;;;2.25;1.95;;;7.00;50.50;;;;;;5088911;28;20547;-69
2022/04/02 12:20:31;;;;;;;2.53;2.20;;;7.10;50.60;;;;;;5093956;28;20024;-70
2022/04/02 12:23:18;;;;;;;3.33;2.33;;;7.00;50.70;;;;;;5094858;28;20675;-70
2022/04/02 12:25:56;;;;;;;4.75;2.58;;;6.90;51.30;;;;;;5088448;28;20072;-69
2022/04/02 12:28:23;;;;;;;2.17;1.88;;;6.80;51.70;;;;;;5092987;28;20028;-70
2022/04/02 12:30:51;;;;;;;4.35;2.50;;;6.70;52.10;;;;;;5091003;28;20024;-70
2022/04/02 12:33:24;;;;;;;3.00;1.85;;;6.50;52.30;;;;;;5098861;28;20556;-69
2022/04/02 12:36:27;;;;;;;2.70;1.90;;;6.40;52.20;;;;;;5083551;28;20049;-68
2022/04/02 12:39:03;;;;;;;3.28;1.80;;;6.40;52.70;;;;;;5078536;28;20045;-68
2022/04/02 12:41:29;;;;;;;4.05;2.00;;;6.40;52.60;;;;;;5088284;28;20024;-69
2022/04/02 12:44:05;;;;;;;4.40;2.20;;;6.40;52.60;;;;;;5081507;28;20031;-69
2022/04/02 12:46:31;;;;;;;2.80;1.90;;;6.50;52.80;;;;;;5089690;28;20528;-69
2022/04/02 12:48:58;;;;;;;4.38;2.25;;;6.40;53.20;;;;;;5089602;28;20062;-69
2022/04/02 12:51:25;;;;;;;3.10;1.92;;;6.40;53.70;;;;;;5085972;28;20413;-69
2022/04/02 12:53:59;;;;;;;3.47;1.77;;;6.40;53.80;;;;;;5088087;28;20520;-69
2022/04/02 12:56:28;;;;;;;1.83;1.60;;;6.60;53.80;;;;;;5087497;28;20071;-68
2022/04/02 12:58:55;;;;;;;2.33;1.67;;;6.80;53.70;;;;;;5082838;28;20054;-68
2022/04/02 13:01:25;;;;;;;3.13;1.80;;;7.00;53.50;;;;;;5079829;28;20020;-69
2022/04/02 13:04:11;;;;;;;3.22;1.70;;;7.20;53.30;;;;;;5080435;28;20089;-69
2022/04/02 13:06:43;;;;;;;4.60;3.10;;;7.40;52.50;;;;;;5079184;28;20043;-68
2022/04/02 13:09:19;;;;;;;4.90;3.17;;;7.60;51.90;;;;;;5086687;28;20024;-70
2022/04/02 13:12:01;;;;;;;4.28;2.80;;;7.70;51.40;;;;;;5084485;28;20113;-69
2022/04/02 13:14:33;;;;;;;4.05;2.17;;;7.80;50.50;;;;;;5085540;28;20016;-70
2022/04/02 13:17:12;;;;;;;;;;;7.90;49.50;;;;;;5093139;28;20123;-69